sensor_id;sensor_type;location;lat;lon;timestamp;P1;durP1;ratioP1;P2;durP2;ratioP2
38529;SDS011;24301;54.332;48.386;2023-03-03T00:02:25;6.70;;;3.27;;
38529;SDS011;24301;54.332;48.386;2023-03-03T00:04:51;5.43;;;3.00;;
38529;SDS011;24301;54.332;48.386;2023-03-03T00:07:17;7.60;;;3.17;;
38529;SDS011;24301;54.332;48.386;2023-03-03T00:09:47;6.00;;;3.43;;
38529;SDS011;24301;54.332;48.386;2023-03-03T00:12:24;7.73;;;3.60;;
38529;SDS011;24301;54.332;48.386;2023-03-03T00:14:54;7.47;;;3.90;;
38529;SDS011;24301;54.332;48.386;2023-03-03T00:17:28;5.10;;;3.23;;
38529;SDS011;24301;54.332;48.386;2023-03-03T00:19:55;7.33;;;3.87;;
38529;SDS011;24301;54.332;48.386;2023-03-03T00:22:30;11.20;;;4.00;;
38529;SDS011;24301;54.332;48.386;2023-03-03T00:25:23;5.77;;;3.30;;
38529;SDS011;24301;54.332;48.386;2023-03-03T00:27:58;6.47;;;3.65;;
38529;SDS011;24301;54.332;48.386;2023-03-03T00:30:44;4.63;;;3.40;;
38529;SDS011;24301;54.332;48.386;2023-03-03T00:36:09;5.27;;;2.70;;
38529;SDS011;24301;54.332;48.386;2023-03-03T00:41:47;6.00;;;3.15;;
38529;SDS011;24301;54.332;48.386;2023-03-03T00:44:55;7.77;;;3.30;;
38529;SDS011;24301;54.332;48.386;2023-03-03T00:47:35;4.70;;;3.53;;
38529;SDS011;24301;54.332;48.386;2023-03-03T00:52:33;5.87;;;3.63;;
38529;SDS011;24301;54.332;48.386;2023-03-03T00:55:02;5.13;;;3.13;;
38529;SDS011;24301;54.332;48.386;2023-03-03T00:57:29;4.87;;;2.83;;
38529;SDS011;24301;54.332;48.386;2023-03-03T01:00:09;4.10;;;2.73;;
38529;SDS011;24301;54.332;48.386;2023-03-03T01:02:35;4.07;;;2.93;;
38529;SDS011;24301;54.332;48.386;2023-03-03T01:05:01;4.07;;;2.93;;
38529;SDS011;24301;54.332;48.386;2023-03-03T01:07:28;5.17;;;3.20;;
38529;SDS011;24301;54.332;48.386;2023-03-03T01:09:53;4.77;;;2.60;;
38529;SDS011;24301;54.332;48.386;2023-03-03T01:12:19;7.33;;;3.30;;
38529;SDS011;24301;54.332;48.386;2023-03-03T01:14:45;7.17;;;3.20;;
38529;SDS011;24301;54.332;48.386;2023-03-03T01:17:13;7.63;;;4.63;;
38529;SDS011;24301;54.332;48.386;2023-03-03T01:19:39;4.73;;;3.00;;
38529;SDS011;24301;54.332;48.386;2023-03-03T01:22:05;6.33;;;3.40;;
38529;SDS011;24301;54.332;48.386;2023-03-03T01:24:30;5.20;;;2.90;;
38529;SDS011;24301;54.332;48.386;2023-03-03T01:26:56;5.00;;;2.83;;
38529;SDS011;24301;54.332;48.386;2023-03-03T01:29:22;5.00;;;2.93;;
38529;SDS011;24301;54.332;48.386;2023-03-03T01:31:48;4.10;;;2.60;;
38529;SDS011;24301;54.332;48.386;2023-03-03T01:34:14;6.67;;;3.97;;
38529;SDS011;24301;54.332;48.386;2023-03-03T01:36:40;6.23;;;3.20;;
38529;SDS011;24301;54.332;48.386;2023-03-03T01:39:05;5.70;;;3.20;;
38529;SDS011;24301;54.332;48.386;2023-03-03T01:41:31;7.60;;;4.07;;
38529;SDS011;24301;54.332;48.386;2023-03-03T01:43:58;6.90;;;2.80;;
38529;SDS011;24301;54.332;48.386;2023-03-03T01:49:12;5.30;;;3.38;;
38529;SDS011;24301;54.332;48.386;2023-03-03T01:51:53;4.77;;;3.03;;
38529;SDS011;24301;54.332;48.386;2023-03-03T01:54:29;5.53;;;3.27;;
38529;SDS011;24301;54.332;48.386;2023-03-03T01:57:01;5.73;;;3.47;;
38529;SDS011;24301;54.332;48.386;2023-03-03T01:59:33;5.83;;;3.57;;
38529;SDS011;24301;54.332;48.386;2023-03-03T02:02:02;6.37;;;3.27;;
38529;SDS011;24301;54.332;48.386;2023-03-03T02:04:29;6.43;;;3.40;;
38529;SDS011;24301;54.332;48.386;2023-03-03T02:06:59;7.40;;;3.73;;
38529;SDS011;24301;54.332;48.386;2023-03-03T02:12:38;6.53;;;3.77;;
38529;SDS011;24301;54.332;48.386;2023-03-03T02:15:29;5.70;;;4.03;;
38529;SDS011;24301;54.332;48.386;2023-03-03T02:18:11;5.63;;;4.53;;
38529;SDS011;24301;54.332;48.386;2023-03-03T02:20:54;7.83;;;4.20;;
38529;SDS011;24301;54.332;48.386;2023-03-03T02:26:11;8.10;;;4.03;;
38529;SDS011;24301;54.332;48.386;2023-03-03T02:28:40;7.17;;;4.70;;
38529;SDS011;24301;54.332;48.386;2023-03-03T02:31:11;6.77;;;4.00;;
38529;SDS011;24301;54.332;48.386;2023-03-03T02:33:41;4.87;;;3.10;;
38529;SDS011;24301;54.332;48.386;2023-03-03T02:36:13;4.90;;;3.57;;
38529;SDS011;24301;54.332;48.386;2023-03-03T02:39:02;11.57;;;4.77;;
38529;SDS011;24301;54.332;48.386;2023-03-03T02:41:44;6.93;;;3.80;;
38529;SDS011;24301;54.332;48.386;2023-03-03T02:44:17;6.27;;;4.13;;
38529;SDS011;24301;54.332;48.386;2023-03-03T02:46:48;11.70;;;5.30;;
38529;SDS011;24301;54.332;48.386;2023-03-03T02:49:17;6.70;;;3.83;;
38529;SDS011;24301;54.332;48.386;2023-03-03T02:51:45;6.77;;;3.83;;
38529;SDS011;24301;54.332;48.386;2023-03-03T02:54:11;6.97;;;3.90;;
38529;SDS011;24301;54.332;48.386;2023-03-03T02:56:40;9.00;;;4.93;;
38529;SDS011;24301;54.332;48.386;2023-03-03T02:59:06;6.60;;;4.37;;
38529;SDS011;24301;54.332;48.386;2023-03-03T03:01:37;5.43;;;4.00;;
38529;SDS011;24301;54.332;48.386;2023-03-03T03:04:09;5.43;;;3.77;;
38529;SDS011;24301;54.332;48.386;2023-03-03T03:06:41;13.70;;;4.73;;
38529;SDS011;24301;54.332;48.386;2023-03-03T03:09:09;6.47;;;4.20;;
38529;SDS011;24301;54.332;48.386;2023-03-03T03:11:37;7.70;;;4.20;;
38529;SDS011;24301;54.332;48.386;2023-03-03T03:14:04;8.47;;;4.40;;
38529;SDS011;24301;54.332;48.386;2023-03-03T03:16:32;7.83;;;4.57;;
38529;SDS011;24301;54.332;48.386;2023-03-03T03:18:59;5.67;;;4.40;;
38529;SDS011;24301;54.332;48.386;2023-03-03T03:21:26;6.77;;;3.87;;
38529;SDS011;24301;54.332;48.386;2023-03-03T03:23:56;6.77;;;5.13;;
38529;SDS011;24301;54.332;48.386;2023-03-03T03:26:23;6.57;;;4.03;;
38529;SDS011;24301;54.332;48.386;2023-03-03T03:28:51;9.40;;;4.77;;
38529;SDS011;24301;54.332;48.386;2023-03-03T03:31:18;5.73;;;4.00;;
38529;SDS011;24301;54.332;48.386;2023-03-03T03:33:45;5.60;;;3.17;;
38529;SDS011;24301;54.332;48.386;2023-03-03T03:36:14;6.07;;;3.50;;
38529;SDS011;24301;54.332;48.386;2023-03-03T03:38:41;7.87;;;4.33;;
38529;SDS011;24301;54.332;48.386;2023-03-03T03:41:08;5.70;;;3.77;;
38529;SDS011;24301;54.332;48.386;2023-03-03T03:43:36;6.73;;;4.37;;
38529;SDS011;24301;54.332;48.386;2023-03-03T03:46:02;7.40;;;4.27;;
38529;SDS011;24301;54.332;48.386;2023-03-03T03:48:29;7.53;;;4.97;;
38529;SDS011;24301;54.332;48.386;2023-03-03T03:50:56;6.90;;;3.90;;
38529;SDS011;24301;54.332;48.386;2023-03-03T03:53:24;5.83;;;3.83;;
38529;SDS011;24301;54.332;48.386;2023-03-03T03:55:52;6.93;;;3.83;;
38529;SDS011;24301;54.332;48.386;2023-03-03T03:58:18;9.33;;;5.10;;
38529;SDS011;24301;54.332;48.386;2023-03-03T04:00:50;6.77;;;4.37;;
38529;SDS011;24301;54.332;48.386;2023-03-03T04:03:17;11.67;;;5.37;;
38529;SDS011;24301;54.332;48.386;2023-03-03T04:05:44;9.43;;;5.77;;
38529;SDS011;24301;54.332;48.386;2023-03-03T04:08:11;8.20;;;4.20;;
38529;SDS011;24301;54.332;48.386;2023-03-03T04:10:38;7.00;;;4.30;;
38529;SDS011;24301;54.332;48.386;2023-03-03T04:13:05;6.07;;;4.07;;
38529;SDS011;24301;54.332;48.386;2023-03-03T04:15:32;5.03;;;4.17;;
38529;SDS011;24301;54.332;48.386;2023-03-03T04:17:59;6.40;;;4.43;;
38529;SDS011;24301;54.332;48.386;2023-03-03T04:20:26;8.80;;;5.40;;
38529;SDS011;24301;54.332;48.386;2023-03-03T04:22:53;7.17;;;4.67;;
38529;SDS011;24301;54.332;48.386;2023-03-03T04:25:22;5.83;;;3.70;;
38529;SDS011;24301;54.332;48.386;2023-03-03T04:27:50;6.50;;;4.10;;
38529;SDS011;24301;54.332;48.386;2023-03-03T04:30:19;6.97;;;4.40;;
38529;SDS011;24301;54.332;48.386;2023-03-03T04:32:47;6.43;;;4.13;;
38529;SDS011;24301;54.332;48.386;2023-03-03T04:35:16;5.80;;;3.97;;
38529;SDS011;24301;54.332;48.386;2023-03-03T04:37:43;6.87;;;4.07;;
38529;SDS011;24301;54.332;48.386;2023-03-03T04:40:10;8.07;;;4.33;;
38529;SDS011;24301;54.332;48.386;2023-03-03T04:42:38;6.03;;;3.40;;
38529;SDS011;24301;54.332;48.386;2023-03-03T04:45:06;5.40;;;4.20;;
38529;SDS011;24301;54.332;48.386;2023-03-03T04:47:33;6.30;;;3.93;;
38529;SDS011;24301;54.332;48.386;2023-03-03T04:50:00;7.73;;;4.37;;
38529;SDS011;24301;54.332;48.386;2023-03-03T04:52:28;5.53;;;3.80;;
38529;SDS011;24301;54.332;48.386;2023-03-03T04:54:55;5.20;;;3.67;;
38529;SDS011;24301;54.332;48.386;2023-03-03T04:57:21;5.83;;;3.90;;
38529;SDS011;24301;54.332;48.386;2023-03-03T04:59:47;7.37;;;4.20;;
38529;SDS011;24301;54.332;48.386;2023-03-03T05:02:13;11.20;;;4.33;;
38529;SDS011;24301;54.332;48.386;2023-03-03T05:04:39;7.80;;;4.63;;
38529;SDS011;24301;54.332;48.386;2023-03-03T05:07:05;4.93;;;3.43;;
38529;SDS011;24301;54.332;48.386;2023-03-03T05:09:31;6.73;;;3.80;;
38529;SDS011;24301;54.332;48.386;2023-03-03T05:11:56;5.13;;;3.57;;
38529;SDS011;24301;54.332;48.386;2023-03-03T05:14:22;5.37;;;3.50;;
38529;SDS011;24301;54.332;48.386;2023-03-03T05:16:48;7.63;;;3.93;;
38529;SDS011;24301;54.332;48.386;2023-03-03T05:19:14;6.30;;;3.57;;
38529;SDS011;24301;54.332;48.386;2023-03-03T05:21:40;9.53;;;4.37;;
38529;SDS011;24301;54.332;48.386;2023-03-03T05:24:07;7.03;;;4.73;;
38529;SDS011;24301;54.332;48.386;2023-03-03T05:26:34;6.40;;;4.07;;
38529;SDS011;24301;54.332;48.386;2023-03-03T05:29:00;7.97;;;5.03;;
38529;SDS011;24301;54.332;48.386;2023-03-03T05:31:25;5.47;;;3.50;;
38529;SDS011;24301;54.332;48.386;2023-03-03T05:33:52;7.07;;;3.83;;
38529;SDS011;24301;54.332;48.386;2023-03-03T05:36:19;5.03;;;3.53;;
38529;SDS011;24301;54.332;48.386;2023-03-03T05:38:45;5.93;;;4.30;;
38529;SDS011;24301;54.332;48.386;2023-03-03T05:41:10;6.73;;;4.10;;
38529;SDS011;24301;54.332;48.386;2023-03-03T05:43:36;5.90;;;3.70;;
38529;SDS011;24301;54.332;48.386;2023-03-03T05:46:02;7.23;;;4.83;;
38529;SDS011;24301;54.332;48.386;2023-03-03T05:48:28;6.47;;;4.37;;
38529;SDS011;24301;54.332;48.386;2023-03-03T05:50:57;6.13;;;4.17;;
38529;SDS011;24301;54.332;48.386;2023-03-03T05:53:24;5.13;;;3.67;;
38529;SDS011;24301;54.332;48.386;2023-03-03T05:55:51;6.43;;;4.30;;
38529;SDS011;24301;54.332;48.386;2023-03-03T05:58:17;8.17;;;4.27;;
38529;SDS011;24301;54.332;48.386;2023-03-03T06:00:42;5.67;;;4.10;;
38529;SDS011;24301;54.332;48.386;2023-03-03T06:03:09;7.27;;;3.63;;
38529;SDS011;24301;54.332;48.386;2023-03-03T06:05:35;6.37;;;3.27;;
38529;SDS011;24301;54.332;48.386;2023-03-03T06:08:01;7.67;;;4.30;;
38529;SDS011;24301;54.332;48.386;2023-03-03T06:10:27;8.17;;;4.20;;
38529;SDS011;24301;54.332;48.386;2023-03-03T06:12:56;5.77;;;3.83;;
38529;SDS011;24301;54.332;48.386;2023-03-03T06:15:23;5.83;;;4.00;;
38529;SDS011;24301;54.332;48.386;2023-03-03T06:17:49;5.40;;;3.60;;
38529;SDS011;24301;54.332;48.386;2023-03-03T06:20:15;6.30;;;4.77;;
38529;SDS011;24301;54.332;48.386;2023-03-03T06:22:41;6.37;;;4.13;;
38529;SDS011;24301;54.332;48.386;2023-03-03T06:25:07;5.77;;;3.70;;
38529;SDS011;24301;54.332;48.386;2023-03-03T06:27:33;7.20;;;3.77;;
38529;SDS011;24301;54.332;48.386;2023-03-03T06:29:59;6.13;;;3.70;;
38529;SDS011;24301;54.332;48.386;2023-03-03T06:32:25;6.80;;;4.43;;
38529;SDS011;24301;54.332;48.386;2023-03-03T06:34:50;5.80;;;4.53;;
38529;SDS011;24301;54.332;48.386;2023-03-03T06:37:16;5.83;;;4.50;;
38529;SDS011;24301;54.332;48.386;2023-03-03T06:39:42;6.27;;;3.87;;
38529;SDS011;24301;54.332;48.386;2023-03-03T06:42:08;7.67;;;4.27;;
38529;SDS011;24301;54.332;48.386;2023-03-03T06:44:34;6.40;;;3.70;;
38529;SDS011;24301;54.332;48.386;2023-03-03T06:47:00;7.13;;;3.90;;
38529;SDS011;24301;54.332;48.386;2023-03-03T06:49:26;8.13;;;4.47;;
38529;SDS011;24301;54.332;48.386;2023-03-03T06:51:52;6.77;;;3.87;;
38529;SDS011;24301;54.332;48.386;2023-03-03T06:54:19;14.00;;;5.97;;
38529;SDS011;24301;54.332;48.386;2023-03-03T06:56:51;6.82;;;4.53;;
38529;SDS011;24301;54.332;48.386;2023-03-03T06:59:22;10.70;;;4.80;;
38529;SDS011;24301;54.332;48.386;2023-03-03T07:01:48;8.37;;;4.53;;
38529;SDS011;24301;54.332;48.386;2023-03-03T07:04:23;3.80;;;3.23;;
38529;SDS011;24301;54.332;48.386;2023-03-03T07:06:56;5.47;;;3.67;;
38529;SDS011;24301;54.332;48.386;2023-03-03T07:09:24;5.37;;;3.77;;
38529;SDS011;24301;54.332;48.386;2023-03-03T07:11:54;7.93;;;4.57;;
38529;SDS011;24301;54.332;48.386;2023-03-03T07:14:24;6.17;;;3.70;;
38529;SDS011;24301;54.332;48.386;2023-03-03T07:16:51;5.30;;;3.90;;
38529;SDS011;24301;54.332;48.386;2023-03-03T07:19:24;5.53;;;4.40;;
38529;SDS011;24301;54.332;48.386;2023-03-03T07:21:55;7.00;;;4.35;;
38529;SDS011;24301;54.332;48.386;2023-03-03T07:24:26;6.93;;;4.20;;
38529;SDS011;24301;54.332;48.386;2023-03-03T07:29:38;5.20;;;4.38;;
38529;SDS011;24301;54.332;48.386;2023-03-03T07:32:12;5.73;;;3.93;;
38529;SDS011;24301;54.332;48.386;2023-03-03T07:34:55;6.43;;;4.47;;
38529;SDS011;24301;54.332;48.386;2023-03-03T07:37:26;7.33;;;4.23;;
38529;SDS011;24301;54.332;48.386;2023-03-03T07:40:45;6.33;;;4.00;;
38529;SDS011;24301;54.332;48.386;2023-03-03T07:42:58;7.87;;;5.13;;
38529;SDS011;24301;54.332;48.386;2023-03-03T07:45:33;8.10;;;4.45;;
38529;SDS011;24301;54.332;48.386;2023-03-03T07:48:24;8.80;;;4.73;;
38529;SDS011;24301;54.332;48.386;2023-03-03T07:50:56;6.60;;;4.90;;
38529;SDS011;24301;54.332;48.386;2023-03-03T07:53:31;7.60;;;5.20;;
38529;SDS011;24301;54.332;48.386;2023-03-03T07:56:00;7.40;;;5.03;;
38529;SDS011;24301;54.332;48.386;2023-03-03T07:58:28;7.90;;;5.50;;
38529;SDS011;24301;54.332;48.386;2023-03-03T08:03:49;4.73;;;3.97;;
38529;SDS011;24301;54.332;48.386;2023-03-03T08:11:34;6.57;;;4.70;;
38529;SDS011;24301;54.332;48.386;2023-03-03T08:14:27;7.43;;;4.80;;
38529;SDS011;24301;54.332;48.386;2023-03-03T08:16:56;8.43;;;5.93;;
38529;SDS011;24301;54.332;48.386;2023-03-03T08:19:22;6.47;;;5.30;;
38529;SDS011;24301;54.332;48.386;2023-03-03T08:21:49;7.93;;;4.53;;
38529;SDS011;24301;54.332;48.386;2023-03-03T08:24:16;8.53;;;5.27;;
38529;SDS011;24301;54.332;48.386;2023-03-03T08:26:42;6.17;;;3.57;;
38529;SDS011;24301;54.332;48.386;2023-03-03T08:29:09;8.13;;;5.43;;
38529;SDS011;24301;54.332;48.386;2023-03-03T08:31:36;7.20;;;4.30;;
38529;SDS011;24301;54.332;48.386;2023-03-03T08:34:02;8.83;;;4.20;;
38529;SDS011;24301;54.332;48.386;2023-03-03T08:36:28;7.27;;;4.90;;
38529;SDS011;24301;54.332;48.386;2023-03-03T08:38:55;6.27;;;4.30;;
38529;SDS011;24301;54.332;48.386;2023-03-03T08:41:21;9.13;;;6.30;;
38529;SDS011;24301;54.332;48.386;2023-03-03T08:43:47;8.30;;;4.93;;
38529;SDS011;24301;54.332;48.386;2023-03-03T08:46:13;7.43;;;5.27;;
38529;SDS011;24301;54.332;48.386;2023-03-03T08:48:39;7.37;;;4.80;;
38529;SDS011;24301;54.332;48.386;2023-03-03T08:51:04;9.17;;;4.30;;
38529;SDS011;24301;54.332;48.386;2023-03-03T08:53:31;9.90;;;5.00;;
38529;SDS011;24301;54.332;48.386;2023-03-03T08:55:59;8.10;;;4.03;;
38529;SDS011;24301;54.332;48.386;2023-03-03T08:58:25;7.23;;;4.57;;
38529;SDS011;24301;54.332;48.386;2023-03-03T09:00:50;8.50;;;4.97;;
38529;SDS011;24301;54.332;48.386;2023-03-03T09:03:17;7.70;;;5.00;;
38529;SDS011;24301;54.332;48.386;2023-03-03T09:05:42;6.10;;;4.43;;
38529;SDS011;24301;54.332;48.386;2023-03-03T09:08:10;9.13;;;5.30;;
38529;SDS011;24301;54.332;48.386;2023-03-03T09:10:36;18.43;;;9.07;;
38529;SDS011;24301;54.332;48.386;2023-03-03T09:13:16;15.27;;;7.63;;
38529;SDS011;24301;54.332;48.386;2023-03-03T09:15:44;8.20;;;5.00;;
38529;SDS011;24301;54.332;48.386;2023-03-03T09:18:14;8.53;;;5.53;;
38529;SDS011;24301;54.332;48.386;2023-03-03T09:20:41;7.83;;;4.77;;
38529;SDS011;24301;54.332;48.386;2023-03-03T09:39:28;7.33;;;4.27;;
38529;SDS011;24301;54.332;48.386;2023-03-03T10:04:15;8.63;;;4.00;;
38529;SDS011;24301;54.332;48.386;2023-03-03T10:12:56;6.27;;;3.27;;
38529;SDS011;24301;54.332;48.386;2023-03-03T10:15:59;10.50;;;4.73;;
38529;SDS011;24301;54.332;48.386;2023-03-03T10:18:55;6.28;;;3.03;;
38529;SDS011;24301;54.332;48.386;2023-03-03T10:21:29;6.70;;;3.83;;
38529;SDS011;24301;54.332;48.386;2023-03-03T10:26:46;5.60;;;3.20;;
38529;SDS011;24301;54.332;48.386;2023-03-03T10:51:43;6.00;;;3.10;;
38529;SDS011;24301;54.332;48.386;2023-03-03T10:57:29;8.23;;;3.67;;
38529;SDS011;24301;54.332;48.386;2023-03-03T11:02:47;4.73;;;3.17;;
38529;SDS011;24301;54.332;48.386;2023-03-03T11:05:52;6.63;;;3.43;;
38529;SDS011;24301;54.332;48.386;2023-03-03T11:24:04;4.97;;;2.73;;
38529;SDS011;24301;54.332;48.386;2023-03-03T11:27:17;7.70;;;3.17;;
38529;SDS011;24301;54.332;48.386;2023-03-03T11:32:50;5.10;;;3.03;;
38529;SDS011;24301;54.332;48.386;2023-03-03T11:35:30;4.40;;;2.20;;
38529;SDS011;24301;54.332;48.386;2023-03-03T11:38:05;4.53;;;2.23;;
38529;SDS011;24301;54.332;48.386;2023-03-03T11:40:52;4.60;;;2.60;;
38529;SDS011;24301;54.332;48.386;2023-03-03T11:45:56;7.60;;;2.67;;
38529;SDS011;24301;54.332;48.386;2023-03-03T11:51:19;7.10;;;3.67;;
38529;SDS011;24301;54.332;48.386;2023-03-03T11:54:08;9.33;;;4.03;;
38529;SDS011;24301;54.332;48.386;2023-03-03T12:05:04;9.77;;;4.20;;
38529;SDS011;24301;54.332;48.386;2023-03-03T12:10:31;8.63;;;3.63;;
38529;SDS011;24301;54.332;48.386;2023-03-03T12:32:25;6.33;;;2.93;;
38529;SDS011;24301;54.332;48.386;2023-03-03T12:37:48;6.07;;;2.00;;
38529;SDS011;24301;54.332;48.386;2023-03-03T12:40:24;2.57;;;2.00;;
38529;SDS011;24301;54.332;48.386;2023-03-03T12:46:00;6.27;;;2.40;;
38529;SDS011;24301;54.332;48.386;2023-03-03T12:57:18;5.33;;;2.40;;
38529;SDS011;24301;54.332;48.386;2023-03-03T13:11:20;5.00;;;2.57;;
38529;SDS011;24301;54.332;48.386;2023-03-03T13:16:24;7.27;;;3.47;;
38529;SDS011;24301;54.332;48.386;2023-03-03T13:18:59;4.53;;;2.20;;
38529;SDS011;24301;54.332;48.386;2023-03-03T13:21:54;5.83;;;2.30;;
38529;SDS011;24301;54.332;48.386;2023-03-03T13:27:18;4.60;;;2.00;;
38529;SDS011;24301;54.332;48.386;2023-03-03T13:30:03;3.57;;;2.47;;
38529;SDS011;24301;54.332;48.386;2023-03-03T13:35:42;5.33;;;2.50;;
38529;SDS011;24301;54.332;48.386;2023-03-03T13:38:19;5.53;;;2.70;;
38529;SDS011;24301;54.332;48.386;2023-03-03T13:41:05;6.37;;;2.50;;
38529;SDS011;24301;54.332;48.386;2023-03-03T13:43:43;4.80;;;2.30;;
38529;SDS011;24301;54.332;48.386;2023-03-03T13:46:15;5.37;;;2.50;;
38529;SDS011;24301;54.332;48.386;2023-03-03T13:52:01;5.83;;;2.90;;
38529;SDS011;24301;54.332;48.386;2023-03-03T14:03:25;5.87;;;2.97;;
38529;SDS011;24301;54.332;48.386;2023-03-03T14:06:12;9.00;;;4.70;;
38529;SDS011;24301;54.332;48.386;2023-03-03T14:08:43;11.90;;;4.77;;
38529;SDS011;24301;54.332;48.386;2023-03-03T14:11:29;6.77;;;3.70;;
38529;SDS011;24301;54.332;48.386;2023-03-03T14:19:41;3.57;;;2.10;;
38529;SDS011;24301;54.332;48.386;2023-03-03T14:22:18;4.27;;;2.10;;
38529;SDS011;24301;54.332;48.386;2023-03-03T14:25:05;4.07;;;1.80;;
38529;SDS011;24301;54.332;48.386;2023-03-03T14:27:34;5.53;;;2.33;;
38529;SDS011;24301;54.332;48.386;2023-03-03T14:38:01;5.40;;;2.60;;
38529;SDS011;24301;54.332;48.386;2023-03-03T14:40:35;5.13;;;2.40;;
38529;SDS011;24301;54.332;48.386;2023-03-03T14:45:57;6.05;;;3.20;;
38529;SDS011;24301;54.332;48.386;2023-03-03T14:48:55;4.03;;;2.63;;
38529;SDS011;24301;54.332;48.386;2023-03-03T14:51:24;10.23;;;5.10;;
38529;SDS011;24301;54.332;48.386;2023-03-03T14:53:50;6.33;;;3.30;;
38529;SDS011;24301;54.332;48.386;2023-03-03T14:56:21;7.03;;;3.97;;
38529;SDS011;24301;54.332;48.386;2023-03-03T14:58:53;8.27;;;4.40;;
38529;SDS011;24301;54.332;48.386;2023-03-03T15:01:34;9.97;;;5.83;;
38529;SDS011;24301;54.332;48.386;2023-03-03T15:04:02;9.50;;;5.07;;
38529;SDS011;24301;54.332;48.386;2023-03-03T15:06:49;9.13;;;5.77;;
38529;SDS011;24301;54.332;48.386;2023-03-03T15:11:57;10.17;;;5.20;;
38529;SDS011;24301;54.332;48.386;2023-03-03T15:14:37;6.85;;;4.95;;
38529;SDS011;24301;54.332;48.386;2023-03-03T15:20:08;8.07;;;4.00;;
38529;SDS011;24301;54.332;48.386;2023-03-03T15:25:46;8.80;;;3.90;;
38529;SDS011;24301;54.332;48.386;2023-03-03T15:39:56;8.40;;;4.57;;
38529;SDS011;24301;54.332;48.386;2023-03-03T15:42:35;8.40;;;4.87;;
38529;SDS011;24301;54.332;48.386;2023-03-03T15:45:26;6.93;;;4.30;;
38529;SDS011;24301;54.332;48.386;2023-03-03T16:01:33;5.93;;;3.63;;
38529;SDS011;24301;54.332;48.386;2023-03-03T16:04:05;5.00;;;3.60;;
38529;SDS011;24301;54.332;48.386;2023-03-03T16:15:07;6.50;;;3.60;;
38529;SDS011;24301;54.332;48.386;2023-03-03T16:23:34;6.97;;;4.20;;
38529;SDS011;24301;54.332;48.386;2023-03-03T16:31:48;8.27;;;4.07;;
38529;SDS011;24301;54.332;48.386;2023-03-03T16:34:24;7.28;;;5.10;;
38529;SDS011;24301;54.332;48.386;2023-03-03T16:42:41;8.85;;;5.13;;
38529;SDS011;24301;54.332;48.386;2023-03-03T16:45:15;7.87;;;4.87;;
38529;SDS011;24301;54.332;48.386;2023-03-03T16:48:00;8.53;;;5.33;;
38529;SDS011;24301;54.332;48.386;2023-03-03T17:07:00;6.20;;;4.40;;
38529;SDS011;24301;54.332;48.386;2023-03-03T17:18:36;9.00;;;4.77;;
38529;SDS011;24301;54.332;48.386;2023-03-03T17:21:24;7.00;;;3.72;;
38529;SDS011;24301;54.332;48.386;2023-03-03T17:26:50;5.93;;;4.50;;
38529;SDS011;24301;54.332;48.386;2023-03-03T17:38:12;7.95;;;4.95;;
38529;SDS011;24301;54.332;48.386;2023-03-03T17:46:02;6.77;;;4.13;;
38529;SDS011;24301;54.332;48.386;2023-03-03T17:48:42;6.57;;;4.20;;
38529;SDS011;24301;54.332;48.386;2023-03-03T18:05:12;8.67;;;5.00;;
38529;SDS011;24301;54.332;48.386;2023-03-03T18:11:22;5.70;;;4.47;;
38529;SDS011;24301;54.332;48.386;2023-03-03T18:14:10;8.63;;;4.50;;
38529;SDS011;24301;54.332;48.386;2023-03-03T18:17:18;9.37;;;5.87;;
38529;SDS011;24301;54.332;48.386;2023-03-03T18:22:53;10.10;;;5.20;;
38529;SDS011;24301;54.332;48.386;2023-03-03T18:25:20;6.87;;;4.90;;
38529;SDS011;24301;54.332;48.386;2023-03-03T18:28:14;9.50;;;5.57;;
38529;SDS011;24301;54.332;48.386;2023-03-03T18:33:14;9.27;;;5.60;;
38529;SDS011;24301;54.332;48.386;2023-03-03T18:35:42;11.77;;;7.00;;
38529;SDS011;24301;54.332;48.386;2023-03-03T19:18:01;10.90;;;5.97;;
38529;SDS011;24301;54.332;48.386;2023-03-03T19:21:04;8.93;;;6.30;;
38529;SDS011;24301;54.332;48.386;2023-03-03T19:26:25;12.70;;;6.87;;
38529;SDS011;24301;54.332;48.386;2023-03-03T19:31:41;7.83;;;6.17;;
38529;SDS011;24301;54.332;48.386;2023-03-03T19:42:50;11.13;;;6.93;;
38529;SDS011;24301;54.332;48.386;2023-03-03T19:45:42;11.73;;;7.70;;
38529;SDS011;24301;54.332;48.386;2023-03-03T19:52:22;13.48;;;7.53;;
38529;SDS011;24301;54.332;48.386;2023-03-03T20:11:55;11.80;;;7.25;;
38529;SDS011;24301;54.332;48.386;2023-03-03T20:14:50;11.27;;;7.27;;
38529;SDS011;24301;54.332;48.386;2023-03-03T20:17:38;11.40;;;7.57;;
38529;SDS011;24301;54.332;48.386;2023-03-03T20:23:12;11.93;;;8.23;;
38529;SDS011;24301;54.332;48.386;2023-03-03T20:25:47;14.43;;;8.57;;
38529;SDS011;24301;54.332;48.386;2023-03-03T20:31:14;14.40;;;9.07;;
38529;SDS011;24301;54.332;48.386;2023-03-03T20:39:37;13.40;;;8.07;;
38529;SDS011;24301;54.332;48.386;2023-03-03T20:50:18;15.27;;;9.13;;
38529;SDS011;24301;54.332;48.386;2023-03-03T20:52:57;12.60;;;8.20;;
38529;SDS011;24301;54.332;48.386;2023-03-03T20:55:38;12.97;;;8.53;;
38529;SDS011;24301;54.332;48.386;2023-03-03T20:58:19;15.93;;;10.00;;
38529;SDS011;24301;54.332;48.386;2023-03-03T21:00:54;12.97;;;9.57;;
38529;SDS011;24301;54.332;48.386;2023-03-03T21:03:31;15.27;;;8.50;;
38529;SDS011;24301;54.332;48.386;2023-03-03T21:06:01;13.33;;;8.50;;
38529;SDS011;24301;54.332;48.386;2023-03-03T21:08:44;15.60;;;10.00;;
38529;SDS011;24301;54.332;48.386;2023-03-03T21:11:13;11.65;;;7.40;;
38529;SDS011;24301;54.332;48.386;2023-03-03T21:13:48;14.23;;;10.83;;
38529;SDS011;24301;54.332;48.386;2023-03-03T21:18:57;14.93;;;8.10;;
38529;SDS011;24301;54.332;48.386;2023-03-03T21:21:23;17.67;;;10.93;;
38529;SDS011;24301;54.332;48.386;2023-03-03T21:23:51;14.13;;;8.53;;
38529;SDS011;24301;54.332;48.386;2023-03-03T21:31:53;13.73;;;8.53;;
38529;SDS011;24301;54.332;48.386;2023-03-03T21:34:22;14.43;;;9.20;;
38529;SDS011;24301;54.332;48.386;2023-03-03T21:36:50;12.80;;;8.67;;
38529;SDS011;24301;54.332;48.386;2023-03-03T21:42:06;14.07;;;9.17;;
38529;SDS011;24301;54.332;48.386;2023-03-03T21:44:52;13.93;;;8.77;;
38529;SDS011;24301;54.332;48.386;2023-03-03T21:47:19;12.50;;;8.20;;
38529;SDS011;24301;54.332;48.386;2023-03-03T21:49:47;12.83;;;7.63;;
38529;SDS011;24301;54.332;48.386;2023-03-03T21:52:16;14.10;;;7.90;;
38529;SDS011;24301;54.332;48.386;2023-03-03T21:54:46;11.93;;;7.67;;
38529;SDS011;24301;54.332;48.386;2023-03-03T21:57:14;11.50;;;7.23;;
38529;SDS011;24301;54.332;48.386;2023-03-03T21:59:43;12.73;;;7.60;;
38529;SDS011;24301;54.332;48.386;2023-03-03T22:02:11;12.23;;;8.57;;
38529;SDS011;24301;54.332;48.386;2023-03-03T22:04:37;13.00;;;7.77;;
38529;SDS011;24301;54.332;48.386;2023-03-03T22:07:03;14.17;;;8.10;;
38529;SDS011;24301;54.332;48.386;2023-03-03T22:09:29;13.13;;;7.90;;
38529;SDS011;24301;54.332;48.386;2023-03-03T22:11:55;15.93;;;9.17;;
38529;SDS011;24301;54.332;48.386;2023-03-03T22:14:21;13.80;;;8.40;;
38529;SDS011;24301;54.332;48.386;2023-03-03T22:16:47;14.97;;;7.63;;
38529;SDS011;24301;54.332;48.386;2023-03-03T22:19:12;13.17;;;9.33;;
38529;SDS011;24301;54.332;48.386;2023-03-03T22:21:39;13.23;;;7.67;;
38529;SDS011;24301;54.332;48.386;2023-03-03T22:24:05;13.13;;;7.93;;
38529;SDS011;24301;54.332;48.386;2023-03-03T22:26:31;13.27;;;8.03;;
38529;SDS011;24301;54.332;48.386;2023-03-03T22:28:57;13.10;;;8.07;;
38529;SDS011;24301;54.332;48.386;2023-03-03T22:31:23;13.93;;;7.43;;